Time;durP1;ratioP1;P1;durP2;ratioP2;P2;SDS_P1;SDS_P2;PMS_P1;PMS_P2;Temp;Humidity;BMP_temperature;BMP_pressure;BME280_temperature;BME280_humidity;BME280_pressure;Samples;Min_cycle;Max_cycle;Signal;HPM_P1;HPM_P2
2020/12/30 00:01:07;;;;;;;1.10;0.40;;;15.80;99.90;;;;;;4136784;34;20561;-87
2020/12/30 00:03:36;;;;;;;1.05;0.62;;;15.80;99.90;;;;;;4140895;34;20483;-88
2020/12/30 00:06:05;;;;;;;0.30;0.30;;;15.80;99.90;;;;;;4135539;34;20181;-87
2020/12/30 00:08:32;;;;;;;1.58;0.52;;;15.70;99.90;;;;;;4136142;34;20221;-87
2020/12/30 00:11:01;;;;;;;0.90;0.40;;;15.60;99.90;;;;;;4147475;34;20151;-90
2020/12/30 00:13:28;;;;;;;1.85;0.30;;;15.60;99.90;;;;;;4132749;34;20094;-85
2020/12/30 00:15:56;;;;;;;1.23;0.85;;;15.60;99.90;;;;;;4148617;34;20138;-88
2020/12/30 00:18:24;;;;;;;1.17;0.30;;;15.60;99.90;;;;;;4139307;34;20444;-87
2020/12/30 00:20:52;;;;;;;1.48;0.40;;;15.60;99.90;;;;;;4144554;34;20143;-87
2020/12/30 00:23:20;;;;;;;1.60;0.30;;;15.60;99.90;;;;;;4145747;34;20110;-92
2020/12/30 00:25:48;;;;;;;3.60;0.40;;;15.60;99.90;;;;;;4155938;34;20052;-88
2020/12/30 00:28:16;;;;;;;2.05;0.68;;;15.60;99.90;;;;;;4133442;34;20060;-86
2020/12/30 00:30:46;;;;;;;2.30;0.40;;;15.60;99.90;;;;;;4148480;34;20086;-88
2020/12/30 00:33:14;;;;;;;0.95;0.50;;;15.70;99.90;;;;;;4140450;34;20086;-88
2020/12/30 00:35:42;;;;;;;0.20;0.20;;;15.70;99.90;;;;;;4138059;34;20125;-83
2020/12/30 00:38:10;;;;;;;1.10;0.40;;;15.70;99.90;;;;;;4139001;34;20698;-87
2020/12/30 00:40:38;;;;;;;3.30;0.40;;;15.80;99.90;;;;;;4154844;34;20120;-89
2020/12/30 00:43:07;;;;;;;0.73;0.50;;;15.70;99.90;;;;;;4142660;34;20103;-89
2020/12/30 00:45:35;;;;;;;3.53;0.40;;;15.80;99.90;;;;;;4128247;34;20063;-87
2020/12/30 00:48:03;;;;;;;0.40;0.40;;;15.80;99.90;;;;;;4122977;34;20140;-87
2020/12/30 00:50:31;;;;;;;0.60;0.40;;;15.80;99.90;;;;;;4138752;34;20056;-86
2020/12/30 00:52:59;;;;;;;1.50;0.65;;;15.70;99.90;;;;;;4126142;34;20111;-91
2020/12/30 00:55:27;;;;;;;0.43;0.40;;;15.70;99.90;;;;;;4139418;34;20493;-85
2020/12/30 00:57:57;;;;;;;1.85;0.75;;;15.70;99.90;;;;;;4146014;34;20335;-86
2020/12/30 01:00:25;;;;;;;2.67;1.30;;;15.70;99.90;;;;;;4132311;34;20130;-86
2020/12/30 01:02:59;;;;;;;1.87;0.62;;;15.70;99.90;;;;;;4142387;34;20068;-84
2020/12/30 01:05:27;;;;;;;0.62;0.50;;;15.70;99.90;;;;;;4134018;34;20107;-90
2020/12/30 01:07:55;;;;;;;0.60;0.43;;;15.70;99.90;;;;;;4146507;34;20126;-85
2020/12/30 01:10:24;;;;;;;0.65;0.50;;;15.70;99.90;;;;;;4141394;34;20282;-87
2020/12/30 01:12:52;;;;;;;0.30;0.30;;;15.70;99.90;;;;;;4149708;34;20068;-88
2020/12/30 01:15:20;;;;;;;2.72;0.30;;;15.60;99.90;;;;;;4150180;34;20072;-86
2020/12/30 01:17:48;;;;;;;0.70;0.35;;;15.60;99.90;;;;;;4133937;34;20083;-86
2020/12/30 01:20:16;;;;;;;1.60;0.50;;;15.60;99.90;;;;;;4149214;34;20100;-86
2020/12/30 01:22:44;;;;;;;0.55;0.45;;;15.60;99.90;;;;;;4148230;34;20133;-87
2020/12/30 01:25:11;;;;;;;2.87;0.70;;;15.60;99.90;;;;;;4143829;34;20101;-87
2020/12/30 01:27:48;;;;;;;5.10;1.30;;;15.60;99.90;;;;;;4145754;34;20103;-89
2020/12/30 01:30:16;;;;;;;6.10;1.27;;;15.60;99.90;;;;;;4140679;34;20359;-89
2020/12/30 01:32:44;;;;;;;1.95;0.88;;;15.60;99.90;;;;;;4126659;34;20092;-85
2020/12/30 01:35:12;;;;;;;1.12;0.62;;;15.50;99.90;;;;;;4154588;34;20089;-86
2020/12/30 01:37:41;;;;;;;5.05;0.90;;;15.50;99.90;;;;;;4121476;34;20056;-87
2020/12/30 01:40:09;;;;;;;6.10;1.48;;;15.40;99.90;;;;;;4145414;34;20116;-87
2020/12/30 01:42:48;;;;;;;3.35;1.00;;;15.40;99.90;;;;;;4125150;34;20108;-86
2020/12/30 01:45:17;;;;;;;8.02;1.58;;;15.30;99.90;;;;;;4137792;34;20510;-89
2020/12/30 01:47:48;;;;;;;7.62;1.08;;;15.30;99.90;;;;;;4138059;34;20067;-86
2020/12/30 01:50:16;;;;;;;9.27;1.35;;;15.20;99.90;;;;;;4126701;34;20065;-87
2020/12/30 01:52:45;;;;;;;3.33;1.23;;;15.20;99.90;;;;;;4124257;34;20080;-86
2020/12/30 01:55:19;;;;;;;5.85;1.60;;;15.20;99.90;;;;;;4143537;34;20060;-89
2020/12/30 01:57:48;;;;;;;4.70;1.00;;;15.20;99.90;;;;;;4131142;34;20152;-90
2020/12/30 02:00:16;;;;;;;6.65;1.62;;;15.20;99.90;;;;;;4127747;34;20057;-87
2020/12/30 02:02:54;;;;;;;10.80;1.95;;;15.20;99.90;;;;;;4122253;34;20179;-86
2020/12/30 02:05:23;;;;;;;3.47;1.30;;;15.10;99.90;;;;;;4129213;34;20156;-86
2020/12/30 02:07:51;;;;;;;4.60;1.37;;;15.10;99.90;;;;;;4133432;34;20315;-86
2020/12/30 02:10:20;;;;;;;6.57;2.17;;;15.00;99.90;;;;;;4131228;34;20521;-87
2020/12/30 02:12:50;;;;;;;3.45;1.83;;;14.90;99.90;;;;;;4134211;34;20127;-85
2020/12/30 02:15:32;;;;;;;5.15;1.42;;;14.80;99.90;;;;;;4153076;34;20516;-90
2020/12/30 02:18:01;;;;;;;5.25;1.10;;;14.70;99.90;;;;;;4121058;34;20215;-90
2020/12/30 02:20:30;;;;;;;3.95;1.20;;;14.50;99.90;;;;;;4129337;34;20486;-89
2020/12/30 02:23:07;;;;;;;5.03;1.58;;;14.40;99.90;;;;;;4135983;34;20149;-92
2020/12/30 02:25:37;;;;;;;8.80;2.35;;;14.40;99.90;;;;;;4148153;34;20072;-88
2020/12/30 02:28:05;;;;;;;3.87;1.20;;;14.30;99.90;;;;;;4126638;34;20114;-85
2020/12/30 02:30:32;;;;;;;6.90;1.60;;;14.20;99.90;;;;;;4140483;34;20065;-88
2020/12/30 02:33:00;;;;;;;2.33;1.00;;;14.20;99.90;;;;;;4143731;34;20064;-85
2020/12/30 02:35:28;;;;;;;2.70;1.00;;;14.20;99.90;;;;;;4156844;34;20512;-90
2020/12/30 02:37:56;;;;;;;3.20;1.10;;;14.10;99.90;;;;;;4147210;34;20057;-86
2020/12/30 02:40:24;;;;;;;2.72;1.05;;;14.10;99.90;;;;;;4133811;34;20079;-88
2020/12/30 02:42:52;;;;;;;8.20;1.20;;;14.10;99.90;;;;;;4138524;34;20066;-85
2020/12/30 02:45:20;;;;;;;7.55;1.40;;;14.10;99.90;;;;;;4153632;34;20537;-92
2020/12/30 02:47:48;;;;;;;4.87;1.10;;;14.00;99.90;;;;;;4133664;34;20053;-91
2020/12/30 02:50:16;;;;;;;2.53;1.30;;;14.00;99.90;;;;;;4153723;34;20107;-91
2020/12/30 02:52:43;;;;;;;6.37;1.35;;;14.00;99.90;;;;;;4131830;34;20115;-89
2020/12/30 02:55:12;;;;;;;3.75;0.90;;;14.00;99.90;;;;;;4136062;34;20063;-87
2020/12/30 02:57:39;;;;;;;4.12;0.68;;;14.00;99.90;;;;;;4129885;34;20082;-88
2020/12/30 03:00:07;;;;;;;3.83;1.15;;;14.00;99.90;;;;;;4152554;34;20359;-89
2020/12/30 03:02:35;;;;;;;1.98;0.80;;;14.00;99.90;;;;;;4130391;34;20577;-89
2020/12/30 03:05:03;;;;;;;4.10;1.15;;;13.90;99.90;;;;;;4139397;34;20076;-86
2020/12/30 03:07:31;;;;;;;2.47;0.70;;;13.90;99.90;;;;;;4142033;34;20113;-89
2020/12/30 03:09:59;;;;;;;2.03;0.60;;;13.90;99.90;;;;;;4140539;34;20119;-88
2020/12/30 03:12:28;;;;;;;4.50;0.98;;;13.90;99.90;;;;;;4814641;29;20083;-88
2020/12/30 03:14:55;;;;;;;3.53;1.20;;;13.90;99.90;;;;;;4126282;34;20521;-88
2020/12/30 03:17:24;;;;;;;1.65;0.82;;;13.70;99.90;;;;;;4120936;34;20143;-88
2020/12/30 03:19:51;;;;;;;2.22;1.27;;;13.70;99.90;;;;;;4131125;34;20064;-86
2020/12/30 03:22:19;;;;;;;5.03;1.10;;;13.90;99.90;;;;;;4266884;29;20492;-87
2020/12/30 03:24:48;;;;;;;4.32;1.02;;;13.80;99.90;;;;;;4133623;29;20048;-91
2020/12/30 03:27:16;;;;;;;6.25;1.10;;;13.70;99.90;;;;;;4130615;34;20156;-89
2020/12/30 03:29:43;;;;;;;2.53;1.45;;;13.70;99.90;;;;;;4137586;34;20120;-88
2020/12/30 03:32:12;;;;;;;5.75;1.05;;;13.70;99.90;;;;;;4129390;34;20138;-88
2020/12/30 03:34:39;;;;;;;1.27;0.90;;;13.70;99.90;;;;;;4139451;34;20427;-89
2020/12/30 03:37:07;;;;;;;4.95;1.02;;;13.70;99.90;;;;;;4115294;34;20121;-90
2020/12/30 03:39:36;;;;;;;10.70;1.37;;;13.70;99.90;;;;;;4137296;34;20080;-87
2020/12/30 03:42:06;;;;;;;2.20;1.05;;;13.80;99.90;;;;;;4124686;34;20095;-88
2020/12/30 03:44:34;;;;;;;4.12;1.00;;;13.90;99.90;;;;;;4119230;34;20112;-89
2020/12/30 03:47:06;;;;;;;6.78;1.62;;;13.90;99.90;;;;;;4126255;34;20064;-87
2020/12/30 03:49:34;;;;;;;4.68;0.80;;;13.90;99.90;;;;;;4118559;34;20120;-90
2020/12/30 03:52:03;;;;;;;2.28;1.27;;;13.90;99.90;;;;;;4125225;34;20119;-89
2020/12/30 03:54:30;;;;;;;4.47;1.30;;;13.90;99.90;;;;;;4135513;34;20197;-86
2020/12/30 03:56:58;;;;;;;1.77;0.93;;;14.00;99.90;;;;;;4129230;34;20092;-87
2020/12/30 03:59:26;;;;;;;3.87;1.02;;;14.00;99.90;;;;;;4135772;34;20093;-86
2020/12/30 04:01:54;;;;;;;9.95;1.50;;;14.00;99.90;;;;;;4133164;34;20104;-87
2020/12/30 04:04:22;;;;;;;6.22;1.33;;;14.10;99.90;;;;;;4118707;34;20086;-85
2020/12/30 04:06:50;;;;;;;1.42;0.80;;;14.10;99.90;;;;;;4121683;34;20104;-84
2020/12/30 04:09:18;;;;;;;6.32;1.20;;;14.10;99.90;;;;;;4114738;34;20114;-87
2020/12/30 04:11:46;;;;;;;3.37;1.40;;;14.10;99.90;;;;;;4116470;34;20176;-88
2020/12/30 04:14:14;;;;;;;3.03;1.23;;;14.10;99.90;;;;;;4124776;34;20183;-93
2020/12/30 04:16:42;;;;;;;1.30;0.90;;;14.20;99.90;;;;;;4123518;34;20756;-85
2020/12/30 04:19:10;;;;;;;2.22;1.00;;;14.20;99.90;;;;;;4122364;34;20108;-87
2020/12/30 04:21:39;;;;;;;3.95;1.55;;;14.20;99.90;;;;;;4127208;34;20075;-89
2020/12/30 04:24:06;;;;;;;8.85;1.35;;;14.20;99.90;;;;;;4116117;34;20122;-90
2020/12/30 04:26:35;;;;;;;5.65;1.12;;;14.20;99.90;;;;;;4119870;34;20158;-90
2020/12/30 04:29:05;;;;;;;5.28;1.08;;;14.20;99.90;;;;;;4135051;34;20076;-88
2020/12/30 04:31:38;;;;;;;2.70;1.42;;;14.20;99.90;;;;;;4127019;34;20052;-90
2020/12/30 04:34:06;;;;;;;8.88;1.45;;;14.20;99.90;;;;;;4133644;34;20245;-91
2020/12/30 04:36:34;;;;;;;5.75;1.50;;;14.20;99.90;;;;;;4130114;34;20169;-90
2020/12/30 04:39:02;;;;;;;6.15;1.30;;;14.30;99.90;;;;;;4127346;34;20164;-89
2020/12/30 04:41:35;;;;;;;5.00;1.50;;;14.30;99.90;;;;;;4126863;34;20495;-91
2020/12/30 04:44:05;;;;;;;3.47;1.23;;;14.30;99.90;;;;;;4128250;34;20060;-90
2020/12/30 04:46:36;;;;;;;5.28;1.30;;;14.40;99.90;;;;;;4126527;34;20089;-89
2020/12/30 04:49:03;;;;;;;5.03;1.40;;;14.30;99.90;;;;;;4132929;34;20500;-90
2020/12/30 04:51:34;;;;;;;4.15;1.52;;;14.30;99.90;;;;;;4105448;34;20151;-90
2020/12/30 04:54:02;;;;;;;7.82;1.05;;;14.20;99.90;;;;;;4123701;34;20116;-88
2020/12/30 04:56:54;;;;;;;2.67;1.15;;;14.20;99.90;;;;;;4139555;34;20130;-88
2020/12/30 04:59:26;;;;;;;5.43;1.00;;;13.90;99.90;;;;;;4135816;34;20060;-90
2020/12/30 05:02:07;;;;;;;2.45;1.17;;;13.90;99.90;;;;;;4130385;34;20179;-90
2020/12/30 05:04:40;;;;;;;5.90;1.10;;;13.90;99.90;;;;;;4114524;34;20124;-93
2020/12/30 05:07:13;;;;;;;5.97;1.20;;;13.80;99.90;;;;;;4112522;34;20068;-92
2020/12/30 05:09:44;;;;;;;4.45;1.10;;;13.70;99.90;;;;;;4133476;34;20351;-91
2020/12/30 05:12:14;;;;;;;3.20;0.73;;;13.70;99.90;;;;;;4123149;34;20107;-88
2020/12/30 05:14:42;;;;;;;3.35;1.27;;;13.60;99.90;;;;;;4128999;34;20140;-88
2020/12/30 05:17:12;;;;;;;4.30;0.95;;;13.70;99.90;;;;;;4119424;34;20086;-89
2020/12/30 05:19:41;;;;;;;5.95;1.23;;;13.60;99.90;;;;;;4127217;34;20104;-88
2020/12/30 05:22:19;;;;;;;6.03;2.15;;;13.60;99.90;;;;;;4119912;34;20183;-87
2020/12/30 05:24:48;;;;;;;5.35;2.12;;;13.60;99.90;;;;;;4141411;34;20366;-86
2020/12/30 05:27:19;;;;;;;2.58;1.05;;;13.70;99.90;;;;;;4134124;34;20128;-87
2020/12/30 05:30:08;;;;;;;3.30;1.73;;;13.80;99.90;;;;;;4207828;28;21053;31
2020/12/30 05:32:37;;;;;;;3.53;1.33;;;13.80;99.90;;;;;;4114712;34;20066;-89
2020/12/30 05:35:05;;;;;;;2.45;1.37;;;13.90;99.90;;;;;;4115745;34;20052;-87
2020/12/30 05:37:35;;;;;;;2.03;1.40;;;13.90;99.90;;;;;;4117542;34;20087;-87
2020/12/30 05:40:19;;;;;;;5.18;1.55;;;14.00;99.90;;;;;;4120859;34;20479;-89
2020/12/30 05:42:51;;;;;;;2.15;1.20;;;14.00;99.90;;;;;;4124786;34;20060;-89
2020/12/30 05:45:21;;;;;;;1.55;1.02;;;14.00;99.90;;;;;;4126073;34;20056;-87
2020/12/30 05:47:50;;;;;;;0.80;0.70;;;14.00;99.90;;;;;;4120979;34;20110;-88
2020/12/30 05:50:25;;;;;;;2.60;0.75;;;14.10;99.90;;;;;;4121985;34;20614;-88
2020/12/30 05:52:54;;;;;;;4.82;0.82;;;14.10;99.90;;;;;;4118671;34;20045;-90
2020/12/30 05:55:26;;;;;;;1.33;0.80;;;14.10;99.90;;;;;;4120139;34;20080;-86
2020/12/30 05:57:54;;;;;;;1.60;0.75;;;14.20;99.90;;;;;;4126365;34;20061;-90
2020/12/30 06:00:29;;;;;;;3.30;0.88;;;14.20;99.90;;;;;;4317255;28;20067;-84
2020/12/30 06:02:58;;;;;;;2.03;0.90;;;14.10;99.90;;;;;;4148424;34;20569;-89
2020/12/30 06:05:28;;;;;;;3.70;0.60;;;14.10;99.90;;;;;;4140336;34;20060;-85
2020/12/30 06:07:56;;;;;;;2.17;0.60;;;14.10;99.90;;;;;;4141807;34;22303;-85
2020/12/30 06:10:26;;;;;;;0.82;0.55;;;14.00;99.90;;;;;;4159361;34;20528;-85
2020/12/30 06:12:59;;;;;;;1.12;0.70;;;14.00;99.90;;;;;;4136778;34;20799;-84
2020/12/30 06:15:33;;;;;;;0.93;0.80;;;13.90;99.90;;;;;;4145765;34;20083;-84
2020/12/30 06:18:03;;;;;;;3.83;0.60;;;13.90;99.90;;;;;;4148401;34;20021;-84
2020/12/30 06:20:39;;;;;;;4.30;1.42;;;13.90;99.90;;;;;;4159135;34;20064;-86
2020/12/30 06:23:07;;;;;;;6.18;0.62;;;13.90;99.90;;;;;;4154006;34;20064;-84
2020/12/30 06:25:38;;;;;;;1.90;0.50;;;13.80;99.90;;;;;;4138001;34;20747;-88
2020/12/30 06:28:20;;;;;;;0.55;0.40;;;13.70;99.90;;;;;;4136949;34;20539;-92
2020/12/30 06:30:51;;;;;;;3.87;0.80;;;13.70;99.90;;;;;;4154718;34;20409;-93
2020/12/30 06:33:23;;;;;;;1.75;0.62;;;13.80;99.90;;;;;;4152689;34;20095;-85
2020/12/30 06:35:56;;;;;;;1.80;0.45;;;13.90;99.90;;;;;;4144750;34;20086;-85
2020/12/30 06:38:25;;;;;;;2.08;0.75;;;13.90;99.90;;;;;;4146124;34;20113;-91
2020/12/30 06:40:58;;;;;;;3.22;1.65;;;14.00;99.90;;;;;;4159323;34;20110;-88
2020/12/30 06:43:43;;;;;;;2.75;0.80;;;14.10;99.90;;;;;;4158053;34;20110;-85
2020/12/30 06:46:12;;;;;;;4.80;0.73;;;14.10;99.90;;;;;;4150383;34;20063;-85
2020/12/30 06:49:01;;;;;;;2.62;0.70;;;14.10;99.90;;;;;;4159075;34;20472;-89
2020/12/30 06:51:40;;;;;;;1.95;0.80;;;14.10;99.90;;;;;;4155913;34;20082;-89
2020/12/30 06:54:08;;;;;;;3.45;0.65;;;14.10;99.90;;;;;;4145370;34;20651;-91
2020/12/30 06:56:39;;;;;;;1.80;0.60;;;14.10;99.90;;;;;;4141868;34;20131;-90
2020/12/30 06:59:33;;;;;;;4.75;0.60;;;14.10;99.90;;;;;;4153473;34;20159;-87
2020/12/30 07:02:03;;;;;;;4.05;0.95;;;14.10;99.90;;;;;;4159056;34;20060;-88
2020/12/30 07:04:33;;;;;;;3.47;0.55;;;14.20;99.90;;;;;;4164651;34;20117;-93
2020/12/30 07:07:02;;;;;;;1.05;0.50;;;14.20;99.90;;;;;;4145948;34;21985;-90
2020/12/30 07:09:31;;;;;;;2.62;0.93;;;14.10;99.90;;;;;;4156556;34;20112;-84
2020/12/30 07:12:03;;;;;;;4.30;0.55;;;14.10;99.90;;;;;;4153874;34;20117;-89
2020/12/30 07:14:37;;;;;;;3.70;0.40;;;14.10;99.90;;;;;;4143680;34;20321;-86
2020/12/30 07:17:07;;;;;;;4.30;0.70;;;14.00;99.90;;;;;;4136405;34;20469;-85
2020/12/30 07:19:42;;;;;;;3.78;0.70;;;14.00;99.90;;;;;;4163527;34;20127;-85
2020/12/30 07:22:14;;;;;;;4.45;1.00;;;14.00;99.90;;;;;;4167055;34;20083;-84
2020/12/30 07:24:46;;;;;;;1.42;0.50;;;14.00;99.90;;;;;;4164226;34;20108;-88
2020/12/30 07:27:16;;;;;;;0.68;0.68;;;14.00;99.90;;;;;;4156678;34;20072;-87
2020/12/30 07:29:46;;;;;;;2.10;1.20;;;14.00;99.90;;;;;;4158710;34;20089;-86
2020/12/30 07:32:15;;;;;;;0.75;0.52;;;14.00;99.90;;;;;;4157109;34;20121;-88
2020/12/30 07:34:46;;;;;;;6.75;0.70;;;14.00;99.90;;;;;;4143612;34;20115;-85
2020/12/30 07:37:22;;;;;;;1.77;0.60;;;14.00;99.90;;;;;;4161132;28;20115;-87
2020/12/30 07:39:50;;;;;;;3.25;0.57;;;14.00;99.90;;;;;;4140561;34;20121;-85
2020/12/30 07:42:23;;;;;;;0.75;0.50;;;14.00;99.90;;;;;;4151336;34;20120;-85
2020/12/30 07:44:53;;;;;;;1.73;0.60;;;14.00;99.90;;;;;;4148622;34;20072;-86
2020/12/30 07:47:25;;;;;;;4.68;0.65;;;14.00;99.90;;;;;;4158350;34;20040;-86
2020/12/30 07:50:01;;;;;;;2.53;0.50;;;14.00;99.90;;;;;;4152722;34;20117;-87
2020/12/30 07:52:29;;;;;;;6.28;0.68;;;14.00;99.90;;;;;;4141844;34;20365;-89
2020/12/30 07:55:00;;;;;;;3.30;0.88;;;14.10;99.90;;;;;;4146373;34;20045;-86
2020/12/30 07:57:46;;;;;;;1.40;0.70;;;14.10;99.90;;;;;;4144687;34;20445;-86
2020/12/30 08:00:16;;;;;;;3.85;1.02;;;14.10;99.90;;;;;;4144441;34;20079;-86
2020/12/30 08:02:54;;;;;;;3.15;1.00;;;14.00;99.90;;;;;;4180235;29;20129;-90
2020/12/30 08:05:22;;;;;;;4.60;1.70;;;14.10;99.90;;;;;;4117303;34;20176;-89
2020/12/30 08:07:51;;;;;;;7.68;1.00;;;14.10;99.90;;;;;;4115969;34;20132;-90
2020/12/30 08:10:22;;;;;;;5.45;1.05;;;14.10;99.90;;;;;;4109760;34;20069;-89
2020/12/30 08:12:50;;;;;;;4.93;3.72;;;14.20;99.90;;;;;;4108406;34;20186;-89
2020/12/30 08:15:18;;;;;;;4.87;1.00;;;14.20;99.90;;;;;;4112927;34;20105;-90
2020/12/30 08:17:46;;;;;;;2.22;0.95;;;14.20;99.90;;;;;;4118615;34;20085;-89
2020/12/30 08:20:15;;;;;;;10.18;7.43;;;14.20;99.90;;;;;;4105167;34;20536;-89
2020/12/30 08:22:43;;;;;;;3.47;1.37;;;14.30;99.90;;;;;;4120577;34;20096;-89
2020/12/30 08:25:11;;;;;;;6.25;2.40;;;14.40;99.90;;;;;;4112429;34;20096;-88
2020/12/30 08:27:40;;;;;;;10.40;3.30;;;14.40;99.90;;;;;;4125710;34;20545;-89
2020/12/30 08:30:10;;;;;;;2.60;0.70;;;14.50;99.90;;;;;;4115605;34;20068;-89
2020/12/30 08:32:41;;;;;;;1.65;1.10;;;14.50;99.90;;;;;;4113795;34;20155;-89
2020/12/30 08:35:21;;;;;;;9.10;5.00;;;14.50;99.90;;;;;;4115975;34;20442;-89
2020/12/30 08:38:15;;;;;;;19.70;18.45;;;14.50;99.90;;;;;;4122800;34;20523;-89
2020/12/30 08:40:48;;;;;;;7.07;4.95;;;14.60;99.90;;;;;;4130707;34;20064;-89
2020/12/30 08:43:33;;;;;;;1.20;0.77;;;14.70;99.90;;;;;;4114258;34;20260;-88
2020/12/30 08:46:06;;;;;;;;;;;14.70;99.90;;;;;;4124150;34;20171;-89
2020/12/30 08:48:45;;;;;;;37.63;35.20;;;14.90;99.90;;;;;;4115917;34;19983;-89
2020/12/30 08:51:33;;;;;;;3.35;1.15;;;15.10;99.90;;;;;;4116448;34;20091;-88
2020/12/30 08:54:12;;;;;;;36.92;34.65;;;15.30;99.90;;;;;;4116520;34;20065;-89
2020/12/30 08:56:45;;;;;;;23.40;22.00;;;15.40;99.90;;;;;;4110341;34;20127;-89
2020/12/30 08:59:23;;;;;;;13.25;12.43;;;15.50;99.90;;;;;;4125740;34;20049;-89
2020/12/30 09:01:51;;;;;;;30.92;29.08;;;15.60;99.90;;;;;;4111652;34;20200;-88
2020/12/30 09:04:19;;;;;;;6.80;4.37;;;15.90;99.90;;;;;;4124305;34;20161;-89
2020/12/30 09:06:50;;;;;;;4.90;2.90;;;16.20;99.90;;;;;;4106205;34;20340;-89
2020/12/30 09:09:19;;;;;;;23.90;21.87;;;16.60;99.90;;;;;;4120673;34;20080;-88
2020/12/30 09:11:49;;;;;;;33.83;31.10;;;17.10;99.90;;;;;;4125301;34;20045;-90
2020/12/30 09:14:20;;;;;;;19.30;17.60;;;18.30;99.90;;;;;;4113702;34;20124;-89
2020/12/30 09:16:55;;;;;;;6.07;5.68;;;;;;;;;;4120919;34;20065;-89
2020/12/30 09:19:24;;;;;;;20.55;19.23;;;21.00;99.90;;;;;;4118215;34;20539;-89
2020/12/30 09:22:13;;;;;;;14.30;13.43;;;21.50;99.90;;;;;;4109880;34;20111;-90
2020/12/30 09:24:43;;;;;;;4.80;2.90;;;22.10;99.90;;;;;;4115035;34;20103;-90
2020/12/30 09:27:23;;;;;;;4.35;3.78;;;24.30;95.00;;;;;;4110858;34;20049;-91
2020/12/30 09:30:06;;;;;;;4.12;3.45;;;23.30;94.80;;;;;;4124048;34;20440;-91
2020/12/30 09:32:35;;;;;;;1.60;1.50;;;24.40;93.60;;;;;;4112282;34;20045;-88
2020/12/30 09:35:07;;;;;;;1.87;0.85;;;24.60;92.50;;;;;;4119345;34;20065;-88
2020/12/30 09:37:37;;;;;;;2.80;2.37;;;22.30;92.60;;;;;;4112779;34;20073;-88
2020/12/30 09:40:11;;;;;;;3.92;3.62;;;22.30;95.80;;;;;;4117724;34;20117;-88
2020/12/30 09:42:42;;;;;;;2.67;0.93;;;23.80;92.00;;;;;;4112965;34;20335;-87
2020/12/30 09:45:15;;;;;;;2.28;2.08;;;23.00;92.30;;;;;;4097849;34;20526;-89
2020/12/30 09:47:43;;;;;;;2.72;1.40;;;23.30;92.80;;;;;;4083563;34;20115;-87
2020/12/30 09:50:14;;;;;;;1.33;0.90;;;23.60;92.10;;;;;;4102142;34;20544;-88
2020/12/30 09:52:44;;;;;;;2.33;2.12;;;22.80;91.30;;;;;;4109585;34;20085;-88
2020/12/30 09:55:12;;;;;;;2.20;0.75;;;23.40;90.70;;;;;;4109225;34;20062;-87
2020/12/30 09:57:41;;;;;;;3.10;3.00;;;22.40;91.70;;;;;;4101515;34;20351;-87
2020/12/30 10:00:11;;;;;;;3.80;3.50;;;;;;;;;;4093432;34;20181;-89
2020/12/30 10:02:39;;;;;;;3.15;2.90;;;25.70;83.10;;;;;;4106981;34;20084;-88
2020/12/30 10:05:07;;;;;;;3.42;3.12;;;25.90;78.90;;;;;;4102096;34;20450;-88
2020/12/30 10:07:38;;;;;;;2.87;2.78;;;26.40;77.40;;;;;;4113146;34;20469;-89
2020/12/30 10:10:06;;;;;;;3.00;2.80;;;25.50;80.00;;;;;;4111456;34;20121;-87
2020/12/30 10:12:38;;;;;;;2.65;2.55;;;25.90;77.60;;;;;;4107904;34;20057;-88
2020/12/30 10:15:11;;;;;;;2.60;2.50;;;26.70;74.80;;;;;;4110999;34;20057;-87
2020/12/30 10:17:40;;;;;;;1.97;1.97;;;27.40;73.20;;;;;;4108477;34;20087;-88
2020/12/30 10:20:09;;;;;;;2.90;2.72;;;27.10;72.60;;;;;;4102948;34;20159;-88
2020/12/30 10:22:39;;;;;;;3.53;2.90;;;27.10;73.10;;;;;;4108682;34;20439;-89
2020/12/30 10:25:12;;;;;;;2.85;2.65;;;27.10;69.60;;;;;;4106895;34;20066;-89
2020/12/30 10:27:41;;;;;;;2.17;1.20;;;27.70;67.60;;;;;;4117160;34;20073;-88
2020/12/30 10:30:10;;;;;;;3.50;2.95;;;28.00;66.40;;;;;;4112690;34;20100;-88
2020/12/30 10:32:38;;;;;;;2.90;2.70;;;29.50;66.60;;;;;;4117527;34;20069;-88
2020/12/30 10:35:08;;;;;;;2.22;0.40;;;30.40;65.80;;;;;;4109067;34;20049;-88
2020/12/30 10:37:36;;;;;;;2.00;0.50;;;26.10;70.40;;;;;;4124991;34;20077;-88
2020/12/30 10:40:06;;;;;;;2.42;1.10;;;23.70;79.60;;;;;;4117124;34;20097;-87
2020/12/30 10:42:34;;;;;;;0.95;0.60;;;22.50;85.80;;;;;;4110198;34;20123;-88
2020/12/30 10:45:02;;;;;;;3.95;3.58;;;22.50;86.90;;;;;;4117158;34;20066;-87
2020/12/30 10:47:31;;;;;;;2.78;2.60;;;25.40;77.20;;;;;;4118178;34;20080;-88
2020/12/30 10:49:59;;;;;;;3.10;2.90;;;27.70;70.00;;;;;;4114972;34;20199;-88
2020/12/30 10:52:28;;;;;;;2.92;2.70;;;27.90;66.10;;;;;;4121922;34;20367;-88
2020/12/30 10:54:57;;;;;;;2.53;0.65;;;28.50;67.70;;;;;;4106503;34;20097;-88
2020/12/30 10:57:25;;;;;;;2.30;0.47;;;25.40;70.00;;;;;;4120157;34;20155;-87
2020/12/30 10:59:53;;;;;;;0.70;0.50;;;22.50;80.00;;;;;;4119748;34;20140;-87
2020/12/30 11:02:21;;;;;;;2.80;0.70;;;21.20;89.00;;;;;;4109317;34;20124;-87
2020/12/30 11:04:49;;;;;;;4.03;0.60;;;20.80;91.30;;;;;;4125887;34;20466;-87
2020/12/30 11:07:18;;;;;;;1.23;0.88;;;20.60;93.50;;;;;;4115428;34;20065;-88
2020/12/30 11:09:49;;;;;;;4.95;2.90;;;20.50;92.80;;;;;;4114362;34;20514;-87
2020/12/30 11:12:25;;;;;;;2.10;0.90;;;22.80;90.00;;;;;;4109825;34;20344;-87
2020/12/30 11:14:53;;;;;;;1.33;1.33;;;24.10;81.50;;;;;;4119228;34;20111;-87
2020/12/30 11:17:21;;;;;;;2.70;2.60;;;23.80;79.00;;;;;;4108947;34;20112;-88
2020/12/30 11:19:49;;;;;;;4.62;1.27;;;25.80;71.90;;;;;;4114391;34;20069;-88
2020/12/30 11:22:17;;;;;;;3.30;3.00;;;25.00;74.20;;;;;;4110768;34;20083;-88
2020/12/30 11:24:45;;;;;;;3.12;2.75;;;24.80;73.80;;;;;;4122090;34;20135;-88
2020/12/30 11:27:13;;;;;;;1.42;0.80;;;27.20;71.20;;;;;;4115945;34;20085;-88
2020/12/30 11:29:41;;;;;;;4.85;0.70;;;26.20;69.90;;;;;;4113425;34;20127;-88
2020/12/30 11:32:11;;;;;;;1.27;0.52;;;25.10;72.40;;;;;;4119444;34;20065;-87
2020/12/30 11:34:40;;;;;;;1.12;0.50;;;23.30;78.70;;;;;;4122745;34;20100;-88
2020/12/30 11:37:07;;;;;;;2.40;2.30;;;21.80;85.50;;;;;;4114561;34;20440;-88
2020/12/30 11:39:35;;;;;;;3.08;2.50;;;24.90;75.30;;;;;;4117331;34;20062;-88
2020/12/30 11:42:04;;;;;;;2.28;1.83;;;26.50;69.40;;;;;;4111908;34;20493;-87
2020/12/30 11:44:32;;;;;;;1.35;0.50;;;27.20;66.10;;;;;;4113211;34;20120;-87
2020/12/30 11:47:00;;;;;;;3.40;0.80;;;24.20;70.30;;;;;;4120805;34;20171;-87
2020/12/30 11:49:28;;;;;;;2.00;1.90;;;23.10;76.90;;;;;;4108239;34;20524;-88
2020/12/30 11:51:56;;;;;;;1.90;1.80;;;24.90;74.80;;;;;;4115100;34;20049;-87
2020/12/30 11:54:24;;;;;;;1.90;1.80;;;25.00;71.40;;;;;;4120873;34;20133;-87
2020/12/30 11:56:52;;;;;;;1.98;1.70;;;25.70;67.60;;;;;;4108840;34;20069;-87
2020/12/30 11:59:21;;;;;;;1.65;1.55;;;26.50;65.70;;;;;;4105132;34;20104;-88
2020/12/30 12:01:48;;;;;;;1.42;1.33;;;26.80;63.80;;;;;;4105596;34;20402;-88
2020/12/30 12:04:17;;;;;;;1.52;1.40;;;26.80;61.70;;;;;;4094181;34;20576;-88
2020/12/30 12:06:45;;;;;;;2.33;1.55;;;26.70;62.80;;;;;;4107908;34;20673;-88
2020/12/30 12:09:13;;;;;;;5.53;1.15;;;26.20;63.00;;;;;;4111819;34;20148;-87
2020/12/30 12:11:41;;;;;;;1.65;0.70;;;25.30;65.50;;;;;;4114768;34;20123;-87
2020/12/30 12:14:09;;;;;;;1.17;0.50;;;22.40;73.60;;;;;;4106015;34;20693;-87
2020/12/30 12:16:39;;;;;;;1.98;1.70;;;21.40;81.60;;;;;;4117482;34;20050;-86
2020/12/30 12:19:08;;;;;;;3.87;1.70;;;23.30;72.90;;;;;;4105168;34;21506;-87
2020/12/30 12:21:39;;;;;;;0.77;0.68;;;25.30;68.90;;;;;;4108292;34;20081;-87
2020/12/30 12:24:08;;;;;;;2.08;1.70;;;22.60;74.10;;;;;;4105815;34;20084;-87
2020/12/30 12:26:36;;;;;;;1.35;1.35;;;23.80;72.50;;;;;;4108496;34;20591;-87
2020/12/30 12:29:34;;;;;;;3.60;1.50;;;24.90;66.80;;;;;;4109018;34;20179;-86
2020/12/30 12:32:15;;;;;;;2.05;1.30;;;26.00;64.60;;;;;;4107211;34;20131;-88
2020/12/30 12:34:46;;;;;;;1.65;1.40;;;26.10;62.90;;;;;;4105600;34;20124;-87
2020/12/30 12:37:15;;;;;;;1.33;1.15;;;25.70;63.60;;;;;;4119068;34;20387;-88
2020/12/30 12:39:45;;;;;;;2.55;0.60;;;25.60;64.10;;;;;;4113380;34;20079;-87
2020/12/30 12:42:14;;;;;;;0.60;0.60;;;24.10;66.70;;;;;;4104130;34;20129;-88
2020/12/30 12:44:42;;;;;;;2.95;0.80;;;23.10;69.90;;;;;;4099347;34;20141;-87
2020/12/30 12:47:11;;;;;;;1.42;0.80;;;22.40;69.80;;;;;;4106127;34;20151;-87
2020/12/30 12:49:40;;;;;;;2.55;0.60;;;22.10;74.40;;;;;;4114774;34;20053;-87
2020/12/30 12:52:08;;;;;;;3.95;0.62;;;21.80;75.80;;;;;;4105426;34;20152;-88
2020/12/30 12:54:36;;;;;;;1.00;0.50;;;21.30;77.60;;;;;;4109830;34;20160;-87
2020/12/30 12:57:05;;;;;;;3.22;0.60;;;;;;;;;;4111112;34;20131;-87
2020/12/30 12:59:34;;;;;;;4.97;0.88;;;;;;;;;;4110779;34;20069;-88
2020/12/30 13:02:03;;;;;;;2.53;0.50;;;;;;;;;;4104133;34;20401;-86
2020/12/30 13:04:32;;;;;;;0.60;0.60;;;;;;;;;;4113789;34;20117;-86